Time;durP1;ratioP1;P1;durP2;ratioP2;P2;SDS_P1;SDS_P2;PMS_P1;PMS_P2;Temp;Humidity;BMP_temperature;BMP_pressure;BME280_temperature;BME280_humidity;BME280_pressure;Samples;Min_cycle;Max_cycle;Signal;HPM_P1;HPM_P2
2024/03/17 00:00:48;;;;;;;;;11.00;10.00;;;;;17.33;100.00;101568.66;2117032;27;46735;-58
2024/03/17 00:01:48;;;;;;;;;10.00;10.00;;;;;17.33;100.00;101571.34;2115966;27;46733;-58
2024/03/17 00:02:49;;;;;;;;;15.00;12.67;;;;;17.32;100.00;101564.22;2116026;27;46799;-60
2024/03/17 00:03:49;;;;;;;;;12.67;12.00;;;;;17.32;100.00;101566.91;2117727;27;46663;-59
2024/03/17 00:04:49;;;;;;;;;9.67;9.67;;;;;17.33;100.00;101568.66;2116380;27;46437;-59
2024/03/17 00:05:56;;;;;;;;;13.67;11.33;;;;;17.34;100.00;101565.06;2116723;27;46676;-58
2024/03/17 00:06:57;;;;;;;;;13.75;11.75;;;;;17.33;100.00;101568.66;2108914;27;46671;-59
2024/03/17 00:07:57;;;;;;;;;12.00;11.00;;;;;17.31;100.00;101560.69;2108838;27;46484;-60
2024/03/17 00:08:58;;;;;;;;;8.33;7.00;;;;;17.30;100.00;101558.94;2116105;27;46340;-59
2024/03/17 00:09:58;;;;;;;;;11.00;11.00;;;;;17.30;100.00;101558.06;2115021;27;46184;-60
2024/03/17 00:10:59;;;;;;;;;12.00;8.67;;;;;17.29;100.00;101554.50;2115670;27;46603;-57
2024/03/17 00:11:59;;;;;;;;;10.33;9.67;;;;;17.29;100.00;101550.94;2116179;27;46484;-59
2024/03/17 00:13:00;;;;;;;;;10.67;9.67;;;;;17.28;100.00;101555.44;2110011;27;46318;-60
2024/03/17 00:14:05;;;;;;;;;11.00;10.00;;;;;17.28;100.00;101552.75;2106560;27;47293;-58
2024/03/17 00:15:06;;;;;;;;;11.75;11.75;;;;;17.27;100.00;101552.78;2116609;27;46429;-59
2024/03/17 00:16:07;;;;;;;;;9.75;9.75;;;;;17.27;100.00;101547.41;2116131;27;46901;-58
2024/03/17 00:17:08;;;;;;;;;10.00;10.00;;;;;17.26;100.00;101546.53;2116441;27;45884;-59
2024/03/17 00:18:08;;;;;;;;;9.33;9.33;;;;;17.24;100.00;101548.41;2117487;27;46645;-57
2024/03/17 00:19:09;;;;;;;;;10.00;10.00;;;;;17.24;100.00;101556.44;2116424;27;46406;-58
2024/03/17 00:20:18;;;;;;;;;8.00;8.00;;;;;17.24;100.00;101559.13;2116624;27;46238;-57
2024/03/17 00:21:19;;;;;;;;;9.25;9.25;;;;;17.21;100.00;101544.97;2116481;27;47013;-58
2024/03/17 00:22:20;;;;;;;;;8.75;8.50;;;;;17.22;100.00;101560.13;2118822;27;46421;-56
2024/03/17 00:23:20;;;;;;;;;11.00;11.00;;;;;17.20;100.00;101552.13;2119661;27;46594;-58
2024/03/17 00:24:20;;;;;;;;;9.00;8.67;;;;;17.19;100.00;101550.38;2117761;27;46394;-61
2024/03/17 00:25:21;;;;;;;;;9.00;9.00;;;;;17.19;100.00;101557.56;2116665;27;46637;-56
2024/03/17 00:26:22;;;;;;;;;10.75;10.50;;;;;17.19;100.00;101553.06;2116390;27;46705;-56
2024/03/17 00:27:22;;;;;;;;;9.00;8.00;;;;;17.19;100.00;101553.06;2117204;27;46453;-58
2024/03/17 00:28:24;;;;;;;;;9.33;9.00;;;;;17.18;100.00;101551.31;2117384;27;46246;-57
2024/03/17 00:29:25;;;;;;;;;9.25;8.00;;;;;17.18;100.00;101558.50;2117077;27;46403;-55
2024/03/17 00:30:25;;;;;;;;;9.00;7.00;;;;;17.17;100.00;101552.25;2118215;27;46219;-59
2024/03/17 00:31:25;;;;;;;;;8.00;8.00;;;;;17.16;100.00;101558.56;2114807;27;46738;-59
2024/03/17 00:32:26;;;;;;;;;10.33;10.00;;;;;17.15;100.00;101547.84;2116812;27;46702;-60
2024/03/17 00:33:26;;;;;;;;;7.67;7.67;;;;;17.10;100.00;101550.72;2116071;27;46626;-58
2024/03/17 00:34:26;;;;;;;;;11.00;10.00;;;;;17.11;100.00;101547.09;2116116;27;46489;-60
2024/03/17 00:35:27;;;;;;;;;8.67;8.67;;;;;17.10;100.00;101545.34;2116078;27;46700;-60
2024/03/17 00:36:27;;;;;;;;;9.00;8.00;;;;;17.09;100.00;101551.63;2117090;27;46227;-57
2024/03/17 00:37:28;;;;;;;;;9.00;8.67;;;;;17.08;100.00;101543.66;2116969;27;46192;-59
2024/03/17 00:38:29;;;;;;;;;8.00;8.00;;;;;17.07;100.00;101545.47;2116778;27;46452;-58
2024/03/17 00:39:30;;;;;;;;;6.33;6.00;;;;;17.08;100.00;101538.28;2116698;27;46743;-55
2024/03/17 00:40:30;;;;;;;;;8.67;8.67;;;;;17.06;100.00;101539.22;2116513;27;46289;-57
2024/03/17 00:41:30;;;;;;;;;9.00;9.00;;;;;17.05;100.00;101537.47;2116433;27;46763;-60
2024/03/17 00:42:32;;;;;;;;;9.00;8.00;;;;;17.03;100.00;101539.34;2117332;27;46355;-59
2024/03/17 00:43:32;;;;;;;;;11.50;10.50;;;;;17.05;100.00;101539.28;2116937;27;46887;-57
2024/03/17 00:44:33;;;;;;;;;8.00;8.00;;;;;17.05;100.00;101534.78;2117029;27;46327;-60
2024/03/17 00:45:33;;;;;;;;;11.00;10.00;;;;;17.05;100.00;101537.47;2117477;27;45555;-59
2024/03/17 00:46:34;;;;;;;;;9.33;9.33;;;;;17.03;100.00;101538.47;2116129;27;46822;-60
2024/03/17 00:47:34;;;;;;;;;10.00;10.00;;;;;17.03;100.00;101539.34;2116209;27;46609;-59
2024/03/17 00:48:34;;;;;;;;;8.00;8.00;;;;;17.03;100.00;101538.47;2114489;27;46641;-54
2024/03/17 00:49:35;;;;;;;;;8.33;8.33;;;;;17.05;100.00;101539.28;2119606;27;46163;-62
2024/03/17 00:50:35;;;;;;;;;9.00;8.00;;;;;17.04;100.00;101534.84;2118885;27;45272;-60
2024/03/17 00:51:36;;;;;;;;;8.33;8.00;;;;;17.00;100.00;101535.88;2115587;27;46680;-62
2024/03/17 00:52:36;;;;;;;;;9.33;8.33;;;;;17.00;100.00;101528.69;2116610;27;46912;-61
2024/03/17 00:53:37;;;;;;;;;10.00;9.67;;;;;17.02;100.00;101536.69;2116714;27;46852;-58
2024/03/17 00:54:37;;;;;;;;;8.33;8.00;;;;;17.02;100.00;101537.59;2117328;27;46351;-61
2024/03/17 00:55:37;;;;;;;;;8.00;8.00;;;;;17.03;100.00;101538.47;2117563;27;46384;-62
2024/03/17 00:56:38;;;;;;;;;8.00;8.00;;;;;17.03;100.00;101539.34;2109404;27;46678;-59
2024/03/17 00:57:38;;;;;;;;;10.00;9.00;;;;;17.02;100.00;101536.69;2113282;27;46637;-63
2024/03/17 00:58:39;;;;;;;;;5.33;5.00;;;;;17.03;100.00;101531.28;2116655;27;46282;-63
2024/03/17 00:59:39;;;;;;;;;8.00;8.00;;;;;17.02;100.00;101528.63;2117226;27;46533;-61
2024/03/17 01:00:39;;;;;;;;;9.00;8.67;;;;;17.00;100.00;101536.75;2116449;27;46280;-58
2024/03/17 01:01:40;;;;;;;;;7.00;7.00;;;;;17.00;100.00;101527.81;2116255;27;46284;-62
2024/03/17 01:02:40;;;;;;;;;8.00;7.33;;;;;16.97;100.00;101527.94;2114669;27;46758;-59
2024/03/17 01:03:41;;;;;;;;;8.33;6.67;;;;;16.94;100.00;101526.25;2115803;27;46643;-61
2024/03/17 01:04:43;;;;;;;;;9.67;8.00;;;;;16.93;100.00;101528.97;2106909;27;46245;-62
2024/03/17 01:05:44;;;;;;;;;9.25;9.25;;;;;16.91;100.00;101531.72;2110456;27;46635;-58
2024/03/17 01:06:46;;;;;;;;;7.75;7.00;;;;;16.87;100.00;101532.72;2116870;27;46735;-62
2024/03/17 01:07:48;;;;;;;;;10.25;10.00;;;;;16.91;100.00;101530.84;2118395;27;46581;-62
2024/03/17 01:08:49;;;;;;;;;9.00;9.00;;;;;16.93;100.00;101535.22;2118251;27;46467;-61
2024/03/17 01:09:49;;;;;;;;;9.00;8.33;;;;;16.94;100.00;101533.41;2115137;27;46507;-62
2024/03/17 01:10:50;;;;;;;;;7.33;7.33;;;;;16.94;100.00;101534.28;2117414;27;46595;-63
2024/03/17 01:11:51;;;;;;;;;6.25;6.25;;;;;16.94;100.00;101534.28;2116430;27;46315;-61
2024/03/17 01:12:51;;;;;;;;;9.00;9.00;;;;;16.94;100.00;101531.59;2117222;27;46626;-62
2024/03/17 01:13:51;;;;;;;;;7.67;7.67;;;;;16.92;100.00;101530.78;2113173;27;46830;-63
2024/03/17 01:14:52;;;;;;;;;9.00;8.00;;;;;16.91;100.00;101536.22;2115713;27;46644;-64
2024/03/17 01:15:53;;;;;;;;;10.33;9.67;;;;;16.91;100.00;101533.53;2116077;27;45662;-62
2024/03/17 01:16:54;;;;;;;;;12.00;11.00;;;;;16.90;100.00;101537.13;2106030;27;47068;-61
2024/03/17 01:17:54;;;;;;;;;11.00;9.00;;;;;16.89;100.00;101530.88;2106089;27;46906;-61
2024/03/17 01:18:55;;;;;;;;;6.67;6.67;;;;;16.89;100.00;101533.56;2114542;27;46628;-61
2024/03/17 01:19:55;;;;;;;;;10.00;9.00;;;;;16.88;100.00;101526.44;2116386;27;46655;-61
2024/03/17 01:20:56;;;;;;;;;11.00;8.67;;;;;16.89;100.00;101527.31;2112493;27;46949;-61
2024/03/17 01:21:56;;;;;;;;;12.00;10.00;;;;;16.88;100.00;101525.56;2111357;27;46530;-60
2024/03/17 01:22:57;;;;;;;;;8.00;8.00;;;;;16.88;100.00;101522.88;2116030;27;46201;-61
2024/03/17 01:23:57;;;;;;;;;10.33;9.67;;;;;16.88;100.00;101522.88;2114989;27;46337;-60
2024/03/17 01:24:57;;;;;;;;;9.00;8.33;;;;;16.88;100.00;101525.56;2114805;27;46389;-62
2024/03/17 01:25:58;;;;;;;;;9.67;9.33;;;;;16.88;100.00;101517.53;2115850;27;46363;-61
2024/03/17 01:26:59;;;;;;;;;10.67;8.00;;;;;16.85;100.00;101517.63;2115660;27;46407;-61
2024/03/17 01:27:59;;;;;;;;;9.75;9.75;;;;;16.82;100.00;101515.94;2117254;27;46025;-59
2024/03/17 01:28:59;;;;;;;;;8.00;8.00;;;;;16.78;100.00;101511.63;2114764;27;46682;-61
2024/03/17 01:30:00;;;;;;;;;9.00;7.33;;;;;16.77;100.00;101512.56;2117829;27;45514;-62
2024/03/17 01:31:00;;;;;;;;;9.00;9.00;;;;;16.76;100.00;101510.78;2117086;27;45915;-62
2024/03/17 01:32:01;;;;;;;;;11.00;10.00;;;;;16.76;100.00;101508.09;2116241;27;46585;-62
2024/03/17 01:33:01;;;;;;;;;9.67;9.00;;;;;16.76;100.00;101508.09;2116975;27;46213;-63
2024/03/17 01:34:01;;;;;;;;;12.33;10.67;;;;;16.74;100.00;101501.94;2116797;27;46497;-59
2024/03/17 01:35:02;;;;;;;;;9.00;9.00;;;;;16.73;100.00;101506.41;2117027;27;46470;-63
2024/03/17 01:36:02;;;;;;;;;7.33;7.33;;;;;16.72;100.00;101496.63;2114498;27;46358;-58
2024/03/17 01:37:03;;;;;;;;;10.00;9.00;;;;;16.73;100.00;101501.06;2116145;27;46445;-62
2024/03/17 01:38:04;;;;;;;;;7.00;6.67;;;;;16.74;100.00;101500.13;2113033;27;46626;-64
2024/03/17 01:39:05;;;;;;;;;10.67;9.67;;;;;16.75;100.00;101495.63;2110131;27;46502;-62
2024/03/17 01:40:10;;;;;;;;;9.25;9.25;;;;;16.74;100.00;101496.56;2117312;27;46646;-63
2024/03/17 01:41:10;;;;;;;;;8.75;8.75;;;;;16.77;100.00;101491.13;2116845;27;47001;-61
2024/03/17 01:42:10;;;;;;;;;8.00;8.00;;;;;16.82;100.00;101490.94;2115703;27;46579;-62
2024/03/17 01:43:11;;;;;;;;;9.67;8.00;;;;;16.80;100.00;101492.81;2116714;27;46509;-62
2024/03/17 01:44:23;;;;;;;;;12.75;9.25;;;;;16.79;100.00;101486.56;2115834;27;46405;-62
2024/03/17 01:45:31;;;;;;;;;12.00;10.75;;;;;16.81;100.00;101483.84;2117459;27;46732;-63
2024/03/17 01:46:32;;;;;;;;;3.25;1.75;;;;;16.80;100.00;101484.78;2115647;27;46214;-62
2024/03/17 01:47:32;;;;;;;;;8.75;8.25;;;;;16.80;100.00;101485.63;2115313;27;46388;-62
2024/03/17 01:48:33;;;;;;;;;7.00;7.00;;;;;16.81;100.00;101481.16;2116690;27;45595;-56
2024/03/17 01:49:34;;;;;;;;;8.33;8.00;;;;;16.81;100.00;101486.50;2117286;27;46856;-62
2024/03/17 01:50:38;;;;;;;;;8.67;7.33;;;;;16.81;100.00;101490.06;2116944;27;46660;-58
2024/03/17 01:51:38;;;;;;;;;10.00;9.50;;;;;16.81;100.00;101486.50;2116140;27;45325;-57
2024/03/17 01:52:39;;;;;;;;;8.00;7.00;;;;;16.82;100.00;101485.59;2116348;27;46073;-61
2024/03/17 01:53:40;;;;;;;;;9.00;9.00;;;;;16.82;100.00;101485.59;2115946;27;46984;-63
2024/03/17 01:54:42;;;;;;;;;10.00;10.00;;;;;16.82;100.00;101478.41;2117463;27;46575;-61
2024/03/17 01:55:46;;;;;;;;;8.75;8.75;;;;;16.82;100.00;101483.78;2115735;27;46287;-61
2024/03/17 01:56:47;;;;;;;;;6.25;6.00;;;;;16.80;100.00;101488.31;2117679;27;45984;-58
2024/03/17 01:57:51;;;;;;;;;8.50;7.50;;;;;16.79;100.00;101486.56;2116457;27;46808;-61
2024/03/17 01:58:52;;;;;;;;;8.75;8.75;;;;;16.75;100.00;101485.78;2116342;27;46969;-61
2024/03/17 01:59:54;;;;;;;;;9.67;8.67;;;;;16.87;100.00;101486.28;2115883;27;46260;-62
2024/03/17 02:00:55;;;;;;;;;6.50;6.50;;;;;16.80;100.00;101479.41;2114330;27;46023;-62
2024/03/17 02:01:56;;;;;;;;;9.00;8.00;;;;;16.79;100.00;101483.91;2115339;27;46859;-60
2024/03/17 02:02:56;;;;;;;;;10.50;9.25;;;;;16.79;100.00;101488.38;2109637;27;45734;-62
2024/03/17 02:03:57;;;;;;;;;10.00;9.67;;;;;16.79;100.00;101483.91;2110962;27;46225;-62
2024/03/17 02:04:58;;;;;;;;;8.50;8.25;;;;;16.85;100.00;101482.78;2115056;27;46519;-59
2024/03/17 02:05:59;;;;;;;;;8.25;8.25;;;;;16.91;100.00;101475.41;2115307;27;46542;-59
2024/03/17 02:06:59;;;;;;;;;9.00;7.67;;;;;16.91;100.00;101477.22;2117359;27;45186;-60
2024/03/17 02:08:00;;;;;;;;;9.33;9.00;;;;;16.91;100.00;101486.13;2115943;27;46081;-63
2024/03/17 02:09:00;;;;;;;;;9.67;7.67;;;;;16.89;100.00;101477.25;2115997;27;46650;-63
2024/03/17 02:10:03;;;;;;;;;8.33;8.33;;;;;16.92;100.00;101473.63;2108676;27;46306;-63
2024/03/17 02:11:03;;;;;;;;;9.75;8.00;;;;;16.93;100.00;101478.03;2109515;27;45976;-62
2024/03/17 02:12:04;;;;;;;;;10.00;9.00;;;;;16.93;100.00;101472.69;2116224;27;46404;-62
2024/03/17 02:13:05;;;;;;;;;9.67;9.00;;;;;16.95;100.00;101477.03;2114718;27;46662;-59
2024/03/17 02:14:09;;;;;;;;;10.25;9.25;;;;;16.95;100.00;101474.38;2114020;27;46244;-62
2024/03/17 02:15:09;;;;;;;;;8.50;8.00;;;;;16.93;100.00;101478.03;2116364;27;46428;-63
2024/03/17 02:16:10;;;;;;;;;9.00;9.00;;;;;16.94;100.00;101479.78;2116434;27;46915;-62
2024/03/17 02:17:11;;;;;;;;;11.00;10.00;;;;;16.96;100.00;101480.59;2107984;27;46706;-59
2024/03/17 02:18:11;;;;;;;;;11.75;11.00;;;;;16.97;100.00;101475.19;2108986;27;46583;-60
2024/03/17 02:19:11;;;;;;;;;9.33;9.33;;;;;16.95;100.00;101476.19;2116446;27;46318;-61
2024/03/17 02:20:13;;;;;;;;;12.00;9.33;;;;;16.94;100.00;101471.75;2116951;27;46533;-62
2024/03/17 02:21:15;;;;;;;;;9.75;9.75;;;;;16.91;100.00;101469.19;2115725;27;46709;-61
2024/03/17 02:22:16;;;;;;;;;11.00;10.00;;;;;16.94;100.00;101469.06;2114937;27;47005;-62
2024/03/17 02:23:18;;;;;;;;;8.50;8.50;;;;;16.98;100.00;101471.56;2115706;27;46947;-61
2024/03/17 02:24:19;;;;;;;;;8.25;8.00;;;;;17.05;100.00;101472.25;2116019;27;46714;-62
2024/03/17 02:25:19;;;;;;;;;9.00;9.00;;;;;17.05;100.00;101466.88;2115861;27;46487;-62
2024/03/17 02:26:20;;;;;;;;;9.33;8.33;;;;;17.06;100.00;101466.81;2115116;27;46215;-61
2024/03/17 02:27:21;;;;;;;;;9.25;9.25;;;;;17.01;100.00;101462.53;2115874;27;46859;-60
2024/03/17 02:28:21;;;;;;;;;10.33;10.00;;;;;17.03;100.00;101464.25;2116497;27;46340;-63
2024/03/17 02:29:21;;;;;;;;;7.67;7.67;;;;;17.02;100.00;101457.13;2118176;27;46325;-62
2024/03/17 02:30:22;;;;;;;;;7.00;7.00;;;;;17.01;100.00;101463.41;2117044;27;46484;-62
2024/03/17 02:31:22;;;;;;;;;10.67;9.33;;;;;17.00;100.00;101456.28;2115894;27;46652;-61
2024/03/17 02:32:22;;;;;;;;;9.00;9.00;;;;;17.00;100.00;101458.09;2117038;27;46659;-62
2024/03/17 02:33:23;;;;;;;;;9.00;8.00;;;;;17.01;100.00;101458.03;2116134;27;46569;-62
2024/03/17 02:34:23;;;;;;;;;11.00;11.00;;;;;17.00;100.00;101458.97;2115301;27;46860;-60
2024/03/17 02:35:24;;;;;;;;;9.33;8.67;;;;;16.98;100.00;101454.59;2115614;27;46725;-64
2024/03/17 02:36:25;;;;;;;;;10.00;10.00;;;;;16.98;100.00;101458.16;2114910;27;46826;-60
2024/03/17 02:37:25;;;;;;;;;7.33;7.33;;;;;16.99;100.00;101457.22;2108800;27;46822;-59
2024/03/17 02:39:46;;;;;;;;;10.00;10.00;;;;;16.99;100.00;101459.03;2115410;27;46617;-59
2024/03/17 02:40:46;;;;;;;;;12.00;11.00;;;;;16.99;100.00;101454.53;2115225;27;46267;-60
2024/03/17 02:41:46;;;;;;;;;8.67;8.33;;;;;16.94;100.00;101456.53;2115293;27;46489;-61
2024/03/17 02:42:46;;;;;;;;;11.00;11.00;;;;;16.93;100.00;101453.91;2115226;27;46316;-62
2024/03/17 02:43:47;;;;;;;;;10.00;10.00;;;;;16.89;100.00;101453.13;2115921;27;46757;-58
2024/03/17 02:44:48;;;;;;;;;9.33;9.33;;;;;16.88;100.00;101459.41;2115548;27;46763;-62
2024/03/17 02:45:48;;;;;;;;;8.67;8.67;;;;;16.87;100.00;101452.31;2116231;27;47077;-61
2024/03/17 02:46:48;;;;;;;;;9.67;8.33;;;;;16.87;100.00;101448.75;2115854;27;46191;-63
2024/03/17 02:47:50;;;;;;;;;12.33;11.33;;;;;16.88;100.00;101448.69;2115929;27;45471;-64
2024/03/17 02:48:52;;;;;;;;;9.75;9.75;;;;;16.93;100.00;101449.41;2107840;27;46568;-61
2024/03/17 02:49:53;;;;;;;;;9.50;8.50;;;;;16.93;100.00;101444.06;2108695;27;46015;-62
2024/03/17 02:50:53;;;;;;;;;8.67;7.67;;;;;16.94;100.00;101444.94;2115070;27;46860;-61
2024/03/17 02:51:54;;;;;;;;;10.67;10.00;;;;;16.94;100.00;101445.81;2115478;27;45456;-60
2024/03/17 02:52:54;;;;;;;;;11.00;9.00;;;;;16.92;100.00;101442.31;2116010;27;45790;-61
2024/03/17 02:53:55;;;;;;;;;10.33;9.67;;;;;16.95;100.00;101438.63;2115952;27;46360;-61
2024/03/17 02:54:55;;;;;;;;;11.00;10.67;;;;;16.91;100.00;101437.00;2116401;27;46786;-63
2024/03/17 02:55:56;;;;;;;;;9.67;9.00;;;;;16.88;100.00;101443.34;2114738;27;46534;-61
2024/03/17 02:56:56;;;;;;;;;10.00;10.00;;;;;16.87;100.00;101438.91;2105601;27;46787;-60
2024/03/17 02:57:56;;;;;;;;;9.00;9.00;;;;;16.88;100.00;101429.06;2106154;27;46602;-61
2024/03/17 02:58:57;;;;;;;;;6.00;6.00;;;;;16.83;100.00;101433.72;2115359;27;46362;-61
2024/03/17 02:59:58;;;;;;;;;10.67;9.00;;;;;16.82;100.00;101430.16;2116286;27;46610;-60
2024/03/17 03:00:59;;;;;;;;;7.00;6.50;;;;;16.83;100.00;101428.34;2116519;27;46903;-59
2024/03/17 03:01:59;;;;;;;;;9.00;9.00;;;;;16.82;100.00;101422.13;2116239;27;47011;-58
2024/03/17 03:03:00;;;;;;;;;8.67;8.67;;;;;16.82;100.00;101422.13;2116601;27;46406;-57
2024/03/17 03:04:00;;;;;;;;;7.67;5.00;;;;;16.77;100.00;101414.25;2115918;27;46790;-60
2024/03/17 03:05:00;;;;;;;;;7.67;7.67;;;;;16.75;100.00;101410.72;2116274;27;45679;-61
2024/03/17 03:06:03;;;;;;;;;8.00;7.00;;;;;16.77;100.00;101406.22;2115572;27;46156;-61
2024/03/17 03:07:04;;;;;;;;;10.00;8.50;;;;;16.86;100.00;101398.75;2115387;27;46799;-59
2024/03/17 03:08:05;;;;;;;;;9.67;8.00;;;;;16.88;100.00;101405.78;2116110;27;46335;-60
2024/03/17 03:09:12;;;;;;;;;8.00;8.00;;;;;16.87;100.00;101398.69;2115585;27;46284;-62
2024/03/17 03:10:12;;;;;;;;;10.00;8.25;;;;;16.88;100.00;101399.56;2114801;27;46987;-60
2024/03/17 03:11:13;;;;;;;;;10.00;9.33;;;;;16.85;100.00;101402.38;2115404;27;46966;-61
2024/03/17 03:12:13;;;;;;;;;9.00;9.00;;;;;16.86;100.00;101404.13;2117062;27;46874;-61
2024/03/17 03:13:13;;;;;;;;;8.00;7.33;;;;;16.85;100.00;101403.25;2115088;27;46469;-61
2024/03/17 03:14:14;;;;;;;;;8.00;8.00;;;;;16.83;100.00;101398.88;2096947;28;46328;-60
2024/03/17 03:15:14;;;;;;;;;7.00;6.00;;;;;16.83;100.00;101396.19;2097098;28;46422;-60
2024/03/17 03:16:14;;;;;;;;;8.33;8.33;;;;;16.81;100.00;101393.56;2115215;27;46338;-60
2024/03/17 03:17:15;;;;;;;;;9.67;9.00;;;;;16.76;100.00;101393.72;2115947;27;46779;-60
2024/03/17 03:18:15;;;;;;;;;8.67;8.67;;;;;16.76;100.00;101391.03;2114966;27;46252;-61
2024/03/17 03:19:16;;;;;;;;;6.00;6.00;;;;;16.72;100.00;101383.19;2115730;27;46826;-61
2024/03/17 03:20:17;;;;;;;;;8.00;8.00;;;;;16.74;100.00;101392.03;2116064;27;46646;-60
2024/03/17 03:21:18;;;;;;;;;10.25;9.00;;;;;16.77;100.00;101389.25;2116498;27;46815;-60
2024/03/17 03:22:21;;;;;;;;;8.67;8.67;;;;;16.80;100.00;101383.78;2116068;27;46331;-61
2024/03/17 03:23:21;;;;;;;;;8.25;7.00;;;;;16.83;100.00;101385.47;2115874;27;46317;-62
2024/03/17 03:24:22;;;;;;;;;10.00;9.33;;;;;16.84;100.00;101374.69;2116700;27;46393;-62
2024/03/17 03:25:22;;;;;;;;;9.33;9.00;;;;;16.84;100.00;101377.38;2116812;27;45231;-61
2024/03/17 03:26:23;;;;;;;;;8.67;8.67;;;;;16.85;100.00;101378.25;2117160;27;45722;-60
2024/03/17 03:27:24;;;;;;;;;9.33;9.00;;;;;16.80;100.00;101373.06;2117864;27;46902;-60
2024/03/17 03:28:25;;;;;;;;;8.25;8.25;;;;;16.82;100.00;101378.34;2117186;27;46950;-61
2024/03/17 03:29:27;;;;;;;;;10.00;10.00;;;;;16.83;100.00;101383.66;2115969;27;46979;-63
2024/03/17 03:30:27;;;;;;;;;8.25;8.25;;;;;16.82;100.00;101386.41;2114342;27;45793;-59
2024/03/17 03:31:27;;;;;;;;;7.67;7.67;;;;;16.82;100.00;101389.09;2117908;27;46576;-63
2024/03/17 03:32:28;;;;;;;;;9.00;8.67;;;;;16.83;100.00;101396.19;2117468;27;46542;-61
2024/03/17 03:33:28;;;;;;;;;9.67;8.33;;;;;16.82;100.00;101394.44;2116291;27;46416;-62
2024/03/17 03:34:29;;;;;;;;;10.00;8.67;;;;;16.84;100.00;101390.78;2117512;27;46813;-62
2024/03/17 03:35:30;;;;;;;;;9.00;9.00;;;;;16.80;100.00;101390.94;2116922;27;46792;-60
2024/03/17 03:36:30;;;;;;;;;8.00;8.00;;;;;16.85;100.00;101389.84;2115843;27;47000;-61
2024/03/17 03:37:31;;;;;;;;;11.33;9.00;;;;;16.86;100.00;101385.34;2116613;27;45928;-62
2024/03/17 03:38:32;;;;;;;;;8.00;7.75;;;;;16.87;100.00;101382.59;2117494;27;46501;-62
2024/03/17 03:39:33;;;;;;;;;8.25;8.00;;;;;16.86;100.00;101377.31;2115375;27;46861;-62
2024/03/17 03:40:34;;;;;;;;;10.00;9.00;;;;;16.85;100.00;101376.44;2116483;27;46433;-63
2024/03/17 03:41:35;;;;;;;;;7.00;7.00;;;;;16.85;100.00;101375.56;2116650;27;46623;-62
2024/03/17 03:42:35;;;;;;;;;8.25;7.00;;;;;16.85;100.00;101380.91;2116124;27;46496;-62
2024/03/17 03:43:36;;;;;;;;;8.67;7.67;;;;;16.85;100.00;101378.25;2117942;27;46189;-62
2024/03/17 03:44:36;;;;;;;;;7.00;6.33;;;;;16.82;100.00;101373.00;2116596;27;46463;-61
2024/03/17 03:45:37;;;;;;;;;6.00;6.00;;;;;16.85;100.00;101375.56;2115787;27;46547;-61
2024/03/17 03:46:37;;;;;;;;;8.25;7.00;;;;;16.84;100.00;101374.69;2117097;27;47370;-60
2024/03/17 03:47:39;;;;;;;;;7.33;7.00;;;;;16.84;100.00;101369.31;2115084;27;46797;-62
2024/03/17 03:48:39;;;;;;;;;7.00;7.00;;;;;16.83;100.00;101372.94;2117301;27;46923;-64
2024/03/17 03:49:40;;;;;;;;;9.00;7.67;;;;;16.81;100.00;101371.25;2116093;27;46728;-62
2024/03/17 03:50:40;;;;;;;;;6.67;6.67;;;;;16.80;100.00;101373.06;2107204;27;46931;-60
2024/03/17 03:51:40;;;;;;;;;6.00;6.00;;;;;16.78;100.00;101382.97;2107827;27;46233;-62
2024/03/17 03:52:45;;;;;;;;;7.33;7.00;;;;;16.81;100.00;101393.56;2118012;27;46243;-62
2024/03/17 03:53:45;;;;;;;;;7.00;7.00;;;;;16.80;100.00;101415.06;2116912;27;45305;-62
2024/03/17 03:54:45;;;;;;;;;9.00;6.67;;;;;16.82;100.00;101418.56;2116836;27;46223;-63
2024/03/17 03:55:46;;;;;;;;;8.00;8.00;;;;;16.80;100.00;101426.66;2116978;27;47493;-62
2024/03/17 03:56:46;;;;;;;;;8.33;6.67;;;;;16.79;100.00;101427.59;2100603;27;46586;-63
2024/03/17 03:57:52;;;;;;;;;5.00;4.00;;;;;16.80;100.00;101424.00;2101816;27;46177;-61
2024/03/17 03:58:52;;;;;;;;;7.00;7.00;;;;;16.80;100.00;101424.00;2117244;27;47126;-61
2024/03/17 03:59:52;;;;;;;;;6.50;5.00;;;;;16.80;100.00;101417.75;2117291;27;46564;-60
2024/03/17 04:00:53;;;;;;;;;7.00;6.00;;;;;16.81;100.00;101419.50;2116645;27;46545;-60
2024/03/17 04:01:53;;;;;;;;;8.67;7.00;;;;;16.81;100.00;101406.09;2118078;27;46721;-61
2024/03/17 04:02:54;;;;;;;;;6.67;6.67;;;;;16.81;100.00;101411.47;2116936;27;45720;-59
2024/03/17 04:03:54;;;;;;;;;7.00;7.00;;;;;16.81;100.00;101411.47;2117377;27;46252;-60
2024/03/17 04:04:54;;;;;;;;;6.33;5.67;;;;;16.79;100.00;101407.97;2115969;27;46662;-61
2024/03/17 04:06:21;;;;;;;;;6.67;6.00;;;;;16.79;100.00;101403.47;2116017;27;46202;-60
2024/03/17 04:07:21;;;;;;;;;6.50;6.50;;;;;16.78;100.00;101404.41;2099460;28;45977;-62
2024/03/17 04:08:24;;;;;;;;;7.67;5.67;;;;;16.79;100.00;101410.66;2099163;28;45191;-62
2024/03/17 04:09:24;;;;;;;;;7.00;7.00;;;;;16.77;100.00;101405.34;2097884;28;46645;-62
2024/03/17 04:10:24;;;;;;;;;6.33;6.33;;;;;16.76;100.00;101404.44;2099467;28;46323;-60
2024/03/17 04:11:25;;;;;;;;;7.00;7.00;;;;;16.77;100.00;101410.72;2099223;28;46866;-61
2024/03/17 04:12:27;;;;;;;;;8.75;8.75;;;;;16.77;100.00;101399.97;2099259;28;46369;-62
2024/03/17 04:13:29;;;;;;;;;6.25;6.25;;;;;16.75;100.00;101402.69;2098662;28;46654;-62
2024/03/17 04:14:30;;;;;;;;;7.75;7.75;;;;;16.73;100.00;101407.25;2098768;28;46848;-62
2024/03/17 04:15:30;;;;;;;;;5.75;4.75;;;;;16.74;100.00;101408.13;2089444;28;46210;-64
2024/03/17 04:16:31;;;;;;;;;7.33;7.33;;;;;16.65;100.00;101405.75;2090415;28;46058;-60
2024/03/17 04:17:34;;;;;;;;;5.67;5.67;;;;;16.74;100.00;101408.97;2099355;28;46256;-61
2024/03/17 04:18:34;;;;;;;;;6.75;6.75;;;;;16.74;100.00;101414.34;2098444;28;46514;-62
2024/03/17 04:19:35;;;;;;;;;6.67;6.67;;;;;16.73;100.00;101414.41;2099003;28;46242;-59
2024/03/17 04:20:36;;;;;;;;;6.50;6.50;;;;;16.73;100.00;101415.28;2098354;28;46380;-59
2024/03/17 04:21:36;;;;;;;;;6.67;6.67;;;;;16.72;100.00;101413.53;2098635;28;46681;-61
2024/03/17 04:22:36;;;;;;;;;5.00;5.00;;;;;16.73;100.00;101409.91;2097976;28;46269;-60
2024/03/17 04:23:37;;;;;;;;;7.33;7.33;;;;;16.73;100.00;101407.25;2099168;28;47000;-61
2024/03/17 04:24:37;;;;;;;;;6.00;6.00;;;;;16.72;100.00;101416.22;2099915;28;46627;-60
2024/03/17 04:25:39;;;;;;;;;7.00;7.00;;;;;16.75;100.00;101410.72;2098588;28;46392;-61
2024/03/17 04:26:39;;;;;;;;;8.50;7.50;;;;;16.75;100.00;101407.19;2098936;28;46844;-60
2024/03/17 04:27:40;;;;;;;;;6.00;6.00;;;;;16.77;100.00;101406.22;2098417;28;46986;-59
2024/03/17 04:28:41;;;;;;;;;6.00;6.00;;;;;16.77;100.00;101411.56;2099434;28;46357;-58
2024/03/17 04:29:41;;;;;;;;;6.00;6.00;;;;;16.77;100.00;101410.72;2099169;28;46260;-57
2024/03/17 04:30:42;;;;;;;;;7.00;7.00;;;;;16.77;100.00;101411.56;2096910;28;46214;-58
2024/03/17 04:31:43;;;;;;;;;8.67;8.00;;;;;16.77;100.00;101406.22;2098699;28;46476;-61
2024/03/17 04:32:43;;;;;;;;;7.00;7.00;;;;;16.79;100.00;101400.81;2099033;28;46888;-60
2024/03/17 04:33:43;;;;;;;;;5.33;5.33;;;;;16.79;100.00;101394.56;2098595;28;46282;-61
2024/03/17 04:34:44;;;;;;;;;8.33;8.33;;;;;16.81;100.00;101395.38;2097805;28;46113;-56
2024/03/17 04:35:44;;;;;;;;;7.67;6.00;;;;;16.80;100.00;101402.53;2096823;28;47861;-60
2024/03/17 04:36:44;;;;;;;;;4.00;4.00;;;;;16.80;100.00;101402.53;2098538;28;45643;-61
2024/03/17 04:37:45;;;;;;;;;9.00;7.33;;;;;16.80;100.00;101407.91;2097736;28;46767;-60
2024/03/17 04:38:45;;;;;;;;;9.00;8.33;;;;;16.77;100.00;101402.66;2099063;28;46138;-62
2024/03/17 04:39:46;;;;;;;;;7.67;7.00;;;;;16.77;100.00;101406.22;2098714;28;46274;-61
2024/03/17 04:40:48;;;;;;;;;11.75;8.00;;;;;16.76;100.00;101403.56;2099176;28;46783;-61